sensor_id;sensor_type;location;lat;lon;timestamp;temperature;humidity
31661;DHT22;18267;52.234;7.444;2022-09-16T00:01:25;14.10;99.90
31661;DHT22;18267;52.234;7.444;2022-09-16T00:03:55;14.00;99.90
31661;DHT22;18267;52.234;7.444;2022-09-16T00:06:21;14.00;99.90
31661;DHT22;18267;52.234;7.444;2022-09-16T00:08:48;14.00;99.90
31661;DHT22;18267;52.234;7.444;2022-09-16T00:11:14;13.90;99.90
31661;DHT22;18267;52.234;7.444;2022-09-16T00:13:40;13.90;99.90
31661;DHT22;18267;52.234;7.444;2022-09-16T00:16:11;13.90;99.90
31661;DHT22;18267;52.234;7.444;2022-09-16T00:18:38;13.90;99.90
31661;DHT22;18267;52.234;7.444;2022-09-16T00:21:08;13.90;99.90
31661;DHT22;18267;52.234;7.444;2022-09-16T00:23:34;13.90;99.90
31661;DHT22;18267;52.234;7.444;2022-09-16T00:26:00;13.90;99.90
31661;DHT22;18267;52.234;7.444;2022-09-16T00:28:25;13.80;99.90
31661;DHT22;18267;52.234;7.444;2022-09-16T00:30:51;13.90;99.90
31661;DHT22;18267;52.234;7.444;2022-09-16T00:33:17;14.00;99.90
31661;DHT22;18267;52.234;7.444;2022-09-16T00:35:43;14.10;99.90
31661;DHT22;18267;52.234;7.444;2022-09-16T00:38:09;14.00;99.90
31661;DHT22;18267;52.234;7.444;2022-09-16T00:40:41;13.90;99.90
31661;DHT22;18267;52.234;7.444;2022-09-16T00:43:10;13.90;99.90
31661;DHT22;18267;52.234;7.444;2022-09-16T00:45:36;13.90;99.90
31661;DHT22;18267;52.234;7.444;2022-09-16T00:48:05;14.00;99.90
31661;DHT22;18267;52.234;7.444;2022-09-16T00:50:40;14.00;99.90
31661;DHT22;18267;52.234;7.444;2022-09-16T00:53:08;14.00;99.90
31661;DHT22;18267;52.234;7.444;2022-09-16T00:55:37;13.90;99.90
31661;DHT22;18267;52.234;7.444;2022-09-16T00:58:35;13.90;99.90
31661;DHT22;18267;52.234;7.444;2022-09-16T01:01:03;14.00;99.90
31661;DHT22;18267;52.234;7.444;2022-09-16T01:03:32;14.00;99.90
31661;DHT22;18267;52.234;7.444;2022-09-16T01:05:58;13.90;99.90
31661;DHT22;18267;52.234;7.444;2022-09-16T01:08:24;13.90;99.90
31661;DHT22;18267;52.234;7.444;2022-09-16T01:10:50;13.80;99.90
31661;DHT22;18267;52.234;7.444;2022-09-16T01:13:15;13.80;99.90
31661;DHT22;18267;52.234;7.444;2022-09-16T01:48:36;13.80;99.90
31661;DHT22;18267;52.234;7.444;2022-09-16T01:53:36;13.70;99.90
31661;DHT22;18267;52.234;7.444;2022-09-16T01:56:21;13.60;99.90
31661;DHT22;18267;52.234;7.444;2022-09-16T01:58:56;13.60;99.90
31661;DHT22;18267;52.234;7.444;2022-09-16T02:01:37;13.50;99.90
31661;DHT22;18267;52.234;7.444;2022-09-16T02:04:09;13.60;99.90
31661;DHT22;18267;52.234;7.444;2022-09-16T02:06:37;13.50;99.90
31661;DHT22;18267;52.234;7.444;2022-09-16T02:09:08;13.60;99.90
31661;DHT22;18267;52.234;7.444;2022-09-16T02:11:37;13.50;99.90
31661;DHT22;18267;52.234;7.444;2022-09-16T02:14:08;13.60;99.90
31661;DHT22;18267;52.234;7.444;2022-09-16T02:16:44;13.60;99.90
31661;DHT22;18267;52.234;7.444;2022-09-16T02:19:16;13.60;99.90
31661;DHT22;18267;52.234;7.444;2022-09-16T02:21:46;13.50;99.90
31661;DHT22;18267;52.234;7.444;2022-09-16T02:24:16;13.40;99.90
31661;DHT22;18267;52.234;7.444;2022-09-16T02:26:47;13.50;99.90
31661;DHT22;18267;52.234;7.444;2022-09-16T02:29:22;13.50;99.90
31661;DHT22;18267;52.234;7.444;2022-09-16T02:31:51;13.50;99.90
31661;DHT22;18267;52.234;7.444;2022-09-16T02:34:28;13.40;99.90
31661;DHT22;18267;52.234;7.444;2022-09-16T02:37:03;13.40;99.90
31661;DHT22;18267;52.234;7.444;2022-09-16T02:39:33;13.40;99.90
31661;DHT22;18267;52.234;7.444;2022-09-16T02:42:00;13.40;99.90
31661;DHT22;18267;52.234;7.444;2022-09-16T02:44:26;13.40;99.90
31661;DHT22;18267;52.234;7.444;2022-09-16T02:52:41;13.40;99.90
31661;DHT22;18267;52.234;7.444;2022-09-16T02:57:46;13.40;99.90
31661;DHT22;18267;52.234;7.444;2022-09-16T03:00:13;13.30;99.90
31661;DHT22;18267;52.234;7.444;2022-09-16T03:02:39;13.40;99.90
31661;DHT22;18267;52.234;7.444;2022-09-16T03:05:05;13.30;99.90
31661;DHT22;18267;52.234;7.444;2022-09-16T03:07:30;13.30;99.90
31661;DHT22;18267;52.234;7.444;2022-09-16T03:09:56;13.30;99.90
31661;DHT22;18267;52.234;7.444;2022-09-16T03:23:46;13.30;99.90
31661;DHT22;18267;52.234;7.444;2022-09-16T03:29:19;13.20;99.90
31661;DHT22;18267;52.234;7.444;2022-09-16T03:31:52;13.10;99.90
31661;DHT22;18267;52.234;7.444;2022-09-16T03:36:57;13.20;99.90
31661;DHT22;18267;52.234;7.444;2022-09-16T03:39:23;13.20;99.90
31661;DHT22;18267;52.234;7.444;2022-09-16T03:41:50;13.10;99.90
31661;DHT22;18267;52.234;7.444;2022-09-16T03:44:15;13.10;99.90
31661;DHT22;18267;52.234;7.444;2022-09-16T03:46:42;13.20;99.90
31661;DHT22;18267;52.234;7.444;2022-09-16T03:49:08;13.20;99.90
31661;DHT22;18267;52.234;7.444;2022-09-16T03:51:35;13.10;99.90
31661;DHT22;18267;52.234;7.444;2022-09-16T03:54:00;13.20;99.90
31661;DHT22;18267;52.234;7.444;2022-09-16T03:56:26;13.20;99.90
31661;DHT22;18267;52.234;7.444;2022-09-16T03:58:52;13.20;99.90
31661;DHT22;18267;52.234;7.444;2022-09-16T04:01:18;13.20;99.90
31661;DHT22;18267;52.234;7.444;2022-09-16T04:03:43;13.20;99.90
31661;DHT22;18267;52.234;7.444;2022-09-16T04:06:09;13.20;99.90
31661;DHT22;18267;52.234;7.444;2022-09-16T04:08:35;13.10;99.90
31661;DHT22;18267;52.234;7.444;2022-09-16T04:11:03;13.10;99.90
31661;DHT22;18267;52.234;7.444;2022-09-16T04:13:33;13.10;99.90
31661;DHT22;18267;52.234;7.444;2022-09-16T04:16:00;13.10;99.90
31661;DHT22;18267;52.234;7.444;2022-09-16T04:18:26;13.00;99.90
31661;DHT22;18267;52.234;7.444;2022-09-16T04:20:56;13.10;99.90
31661;DHT22;18267;52.234;7.444;2022-09-16T04:23:24;13.00;99.90
31661;DHT22;18267;52.234;7.444;2022-09-16T04:25:54;13.00;99.90
31661;DHT22;18267;52.234;7.444;2022-09-16T04:28:20;13.00;99.90
31661;DHT22;18267;52.234;7.444;2022-09-16T04:30:46;13.00;99.90
31661;DHT22;18267;52.234;7.444;2022-09-16T04:33:11;13.00;99.90
31661;DHT22;18267;52.234;7.444;2022-09-16T04:35:37;12.90;99.90
31661;DHT22;18267;52.234;7.444;2022-09-16T04:38:03;12.80;99.90
31661;DHT22;18267;52.234;7.444;2022-09-16T04:40:28;12.90;99.90
31661;DHT22;18267;52.234;7.444;2022-09-16T04:42:54;12.80;99.90
31661;DHT22;18267;52.234;7.444;2022-09-16T04:45:19;12.80;99.90
31661;DHT22;18267;52.234;7.444;2022-09-16T04:47:48;12.90;99.90
31661;DHT22;18267;52.234;7.444;2022-09-16T04:50:19;12.90;99.90
31661;DHT22;18267;52.234;7.444;2022-09-16T04:52:45;13.00;99.90
31661;DHT22;18267;52.234;7.444;2022-09-16T04:55:13;13.00;99.90
31661;DHT22;18267;52.234;7.444;2022-09-16T04:57:38;12.90;99.90
31661;DHT22;18267;52.234;7.444;2022-09-16T05:00:14;12.80;99.90
31661;DHT22;18267;52.234;7.444;2022-09-16T05:06:45;12.80;99.90
31661;DHT22;18267;52.234;7.444;2022-09-16T05:10:20;12.80;99.90
31661;DHT22;18267;52.234;7.444;2022-09-16T05:20:36;12.80;99.90
31661;DHT22;18267;52.234;7.444;2022-09-16T05:27:20;12.70;99.90
31661;DHT22;18267;52.234;7.444;2022-09-16T05:34:22;12.70;99.90
31661;DHT22;18267;52.234;7.444;2022-09-16T05:37:45;12.80;99.90
31661;DHT22;18267;52.234;7.444;2022-09-16T05:40:15;12.80;99.90
31661;DHT22;18267;52.234;7.444;2022-09-16T05:43:16;12.90;99.90
31661;DHT22;18267;52.234;7.444;2022-09-16T05:56:33;12.80;99.90
31661;DHT22;18267;52.234;7.444;2022-09-16T06:00:25;12.90;99.90
31661;DHT22;18267;52.234;7.444;2022-09-16T06:04:01;13.00;99.90
31661;DHT22;18267;52.234;7.444;2022-09-16T06:14:42;13.00;99.90
31661;DHT22;18267;52.234;7.444;2022-09-16T06:21:30;13.00;99.90
31661;DHT22;18267;52.234;7.444;2022-09-16T06:24:52;13.00;99.90
31661;DHT22;18267;52.234;7.444;2022-09-16T06:36:05;13.10;99.90
31661;DHT22;18267;52.234;7.444;2022-09-16T06:42:37;13.10;99.90
31661;DHT22;18267;52.234;7.444;2022-09-16T06:45:26;13.10;99.90
31661;DHT22;18267;52.234;7.444;2022-09-16T07:05:16;13.50;99.90
31661;DHT22;18267;52.234;7.444;2022-09-16T07:07:46;13.60;99.90
31661;DHT22;18267;52.234;7.444;2022-09-16T07:10:22;13.60;99.90
31661;DHT22;18267;52.234;7.444;2022-09-16T07:16:50;13.40;99.90
31661;DHT22;18267;52.234;7.444;2022-09-16T07:19:58;13.50;99.90
31661;DHT22;18267;52.234;7.444;2022-09-16T07:25:46;13.60;99.90
31661;DHT22;18267;52.234;7.444;2022-09-16T07:28:36;13.70;99.90
31661;DHT22;18267;52.234;7.444;2022-09-16T07:31:50;13.70;99.90
31661;DHT22;18267;52.234;7.444;2022-09-16T07:34:34;13.70;99.90
31661;DHT22;18267;52.234;7.444;2022-09-16T07:51:13;14.00;99.90
31661;DHT22;18267;52.234;7.444;2022-09-16T07:54:13;14.00;99.90
31661;DHT22;18267;52.234;7.444;2022-09-16T07:57:04;14.10;99.90
31661;DHT22;18267;52.234;7.444;2022-09-16T08:00:21;14.10;99.90
31661;DHT22;18267;52.234;7.444;2022-09-16T08:03:08;14.20;99.90
31661;DHT22;18267;52.234;7.444;2022-09-16T08:19:35;14.40;99.90
31661;DHT22;18267;52.234;7.444;2022-09-16T08:23:18;14.50;99.90
31661;DHT22;18267;52.234;7.444;2022-09-16T08:26:07;14.50;99.90
31661;DHT22;18267;52.234;7.444;2022-09-16T08:28:45;14.50;99.90
31661;DHT22;18267;52.234;7.444;2022-09-16T08:31:12;14.50;99.90
31661;DHT22;18267;52.234;7.444;2022-09-16T08:36:52;14.60;99.90
31661;DHT22;18267;52.234;7.444;2022-09-16T08:39:20;14.60;99.90
31661;DHT22;18267;52.234;7.444;2022-09-16T08:46:01;14.70;99.90
31661;DHT22;18267;52.234;7.444;2022-09-16T08:52:36;14.80;99.90
31661;DHT22;18267;52.234;7.444;2022-09-16T08:55:32;14.90;99.90
31661;DHT22;18267;52.234;7.444;2022-09-16T08:58:51;14.90;99.90
31661;DHT22;18267;52.234;7.444;2022-09-16T09:05:54;15.00;99.90
31661;DHT22;18267;52.234;7.444;2022-09-16T09:12:44;15.10;99.90
31661;DHT22;18267;52.234;7.444;2022-09-16T09:25:21;15.20;99.90
31661;DHT22;18267;52.234;7.444;2022-09-16T09:41:58;15.70;99.90
31661;DHT22;18267;52.234;7.444;2022-09-16T09:50:45;15.70;99.90
31661;DHT22;18267;52.234;7.444;2022-09-16T09:54:28;15.70;99.90
31661;DHT22;18267;52.234;7.444;2022-09-16T10:00:25;15.60;99.90
31661;DHT22;18267;52.234;7.444;2022-09-16T10:03:15;15.70;99.90
31661;DHT22;18267;52.234;7.444;2022-09-16T10:09:21;15.80;99.90
31661;DHT22;18267;52.234;7.444;2022-09-16T10:11:53;15.80;99.90
31661;DHT22;18267;52.234;7.444;2022-09-16T10:14:30;15.80;99.90
31661;DHT22;18267;52.234;7.444;2022-09-16T10:17:04;15.80;99.90
31661;DHT22;18267;52.234;7.444;2022-09-16T10:19:49;15.90;99.90
31661;DHT22;18267;52.234;7.444;2022-09-16T10:22:28;15.90;99.90
31661;DHT22;18267;52.234;7.444;2022-09-16T10:25:05;16.00;99.90
31661;DHT22;18267;52.234;7.444;2022-09-16T10:27:34;16.00;99.90
31661;DHT22;18267;52.234;7.444;2022-09-16T10:30:16;16.00;99.90
31661;DHT22;18267;52.234;7.444;2022-09-16T10:32:55;16.00;99.90
31661;DHT22;18267;52.234;7.444;2022-09-16T10:35:28;16.00;99.90
31661;DHT22;18267;52.234;7.444;2022-09-16T10:37:56;16.10;99.90
31661;DHT22;18267;52.234;7.444;2022-09-16T10:40:23;16.20;99.90
31661;DHT22;18267;52.234;7.444;2022-09-16T10:42:51;16.40;99.90
31661;DHT22;18267;52.234;7.444;2022-09-16T10:45:26;16.60;99.90
31661;DHT22;18267;52.234;7.444;2022-09-16T10:47:56;16.80;99.90
31661;DHT22;18267;52.234;7.444;2022-09-16T10:50:22;16.80;99.90
31661;DHT22;18267;52.234;7.444;2022-09-16T10:52:49;16.80;99.90
31661;DHT22;18267;52.234;7.444;2022-09-16T10:55:30;16.70;99.90
31661;DHT22;18267;52.234;7.444;2022-09-16T10:58:15;16.60;99.90
31661;DHT22;18267;52.234;7.444;2022-09-16T11:00:51;16.50;99.90
31661;DHT22;18267;52.234;7.444;2022-09-16T11:14:29;14.00;99.90
31661;DHT22;18267;52.234;7.444;2022-09-16T11:29:21;14.50;99.90
31661;DHT22;18267;52.234;7.444;2022-09-16T11:34:45;14.70;99.90
31661;DHT22;18267;52.234;7.444;2022-09-16T11:43:00;15.00;99.90
31661;DHT22;18267;52.234;7.444;2022-09-16T11:45:50;15.00;99.90
31661;DHT22;18267;52.234;7.444;2022-09-16T11:51:19;15.30;99.90
31661;DHT22;18267;52.234;7.444;2022-09-16T11:56:48;15.50;99.90
31661;DHT22;18267;52.234;7.444;2022-09-16T11:59:28;15.40;99.90
31661;DHT22;18267;52.234;7.444;2022-09-16T12:04:31;15.40;99.90
31661;DHT22;18267;52.234;7.444;2022-09-16T12:07:17;15.40;99.90
31661;DHT22;18267;52.234;7.444;2022-09-16T12:09:51;15.40;99.90
31661;DHT22;18267;52.234;7.444;2022-09-16T12:12:21;15.50;99.90
31661;DHT22;18267;52.234;7.444;2022-09-16T12:15:00;15.50;99.90
31661;DHT22;18267;52.234;7.444;2022-09-16T12:17:34;15.50;99.90
31661;DHT22;18267;52.234;7.444;2022-09-16T12:22:50;15.40;99.90
31661;DHT22;18267;52.234;7.444;2022-09-16T12:25:41;15.30;99.90
31661;DHT22;18267;52.234;7.444;2022-09-16T12:31:17;15.10;99.90
31661;DHT22;18267;52.234;7.444;2022-09-16T12:33:56;15.10;99.90
31661;DHT22;18267;52.234;7.444;2022-09-16T12:36:32;15.20;99.90
31661;DHT22;18267;52.234;7.444;2022-09-16T12:38:59;15.30;99.90
31661;DHT22;18267;52.234;7.444;2022-09-16T12:47:00;15.60;99.90
31661;DHT22;18267;52.234;7.444;2022-09-16T12:49:56;15.70;99.90
31661;DHT22;18267;52.234;7.444;2022-09-16T13:03:52;15.30;99.90
31661;DHT22;18267;52.234;7.444;2022-09-16T13:06:32;15.20;99.90
31661;DHT22;18267;52.234;7.444;2022-09-16T13:09:14;15.20;99.90
31661;DHT22;18267;52.234;7.444;2022-09-16T13:11:59;15.20;99.90
31661;DHT22;18267;52.234;7.444;2022-09-16T13:14:36;15.30;99.90
31661;DHT22;18267;52.234;7.444;2022-09-16T13:17:03;15.30;99.90
31661;DHT22;18267;52.234;7.444;2022-09-16T13:22:27;15.30;99.90
31661;DHT22;18267;52.234;7.444;2022-09-16T13:24:57;15.30;99.90
31661;DHT22;18267;52.234;7.444;2022-09-16T13:29:50;15.50;99.90
31661;DHT22;18267;52.234;7.444;2022-09-16T13:32:38;15.50;99.90
31661;DHT22;18267;52.234;7.444;2022-09-16T13:35:34;15.70;99.90
31661;DHT22;18267;52.234;7.444;2022-09-16T13:40:39;15.70;99.90
31661;DHT22;18267;52.234;7.444;2022-09-16T13:45:39;15.20;99.90
31661;DHT22;18267;52.234;7.444;2022-09-16T13:50:42;14.60;99.90
31661;DHT22;18267;52.234;7.444;2022-09-16T13:53:32;14.50;99.90
31661;DHT22;18267;52.234;7.444;2022-09-16T14:02:02;14.70;99.90
31661;DHT22;18267;52.234;7.444;2022-09-16T14:07:40;14.30;99.90
31661;DHT22;18267;52.234;7.444;2022-09-16T14:13:13;13.90;99.90
31661;DHT22;18267;52.234;7.444;2022-09-16T14:15:45;13.90;99.90
31661;DHT22;18267;52.234;7.444;2022-09-16T14:18:13;14.10;99.90
31661;DHT22;18267;52.234;7.444;2022-09-16T14:21:00;14.30;99.90
31661;DHT22;18267;52.234;7.444;2022-09-16T14:23:26;14.30;99.90
31661;DHT22;18267;52.234;7.444;2022-09-16T14:25:52;14.40;99.90
31661;DHT22;18267;52.234;7.444;2022-09-16T14:28:19;14.50;99.90
31661;DHT22;18267;52.234;7.444;2022-09-16T14:30:53;14.60;99.90
31661;DHT22;18267;52.234;7.444;2022-09-16T14:33:31;14.70;99.90
31661;DHT22;18267;52.234;7.444;2022-09-16T14:35:59;14.80;99.90
31661;DHT22;18267;52.234;7.444;2022-09-16T14:38:41;14.90;99.90
31661;DHT22;18267;52.234;7.444;2022-09-16T14:41:08;15.10;99.90
31661;DHT22;18267;52.234;7.444;2022-09-16T14:43:36;15.20;99.90
31661;DHT22;18267;52.234;7.444;2022-09-16T14:46:05;15.30;99.90
31661;DHT22;18267;52.234;7.444;2022-09-16T14:48:34;15.40;99.90
31661;DHT22;18267;52.234;7.444;2022-09-16T14:51:24;15.50;99.90
31661;DHT22;18267;52.234;7.444;2022-09-16T14:53:56;15.60;99.90
31661;DHT22;18267;52.234;7.444;2022-09-16T14:56:22;15.60;99.90
31661;DHT22;18267;52.234;7.444;2022-09-16T14:58:48;15.60;99.90
31661;DHT22;18267;52.234;7.444;2022-09-16T15:01:21;15.60;99.90
31661;DHT22;18267;52.234;7.444;2022-09-16T15:04:21;15.60;99.90
31661;DHT22;18267;52.234;7.444;2022-09-16T15:06:53;15.60;99.90
31661;DHT22;18267;52.234;7.444;2022-09-16T15:12:25;15.60;99.90
31661;DHT22;18267;52.234;7.444;2022-09-16T15:15:35;15.50;99.90
31661;DHT22;18267;52.234;7.444;2022-09-16T15:20:52;15.50;99.90
31661;DHT22;18267;52.234;7.444;2022-09-16T15:23:25;15.50;99.90
31661;DHT22;18267;52.234;7.444;2022-09-16T15:25:54;15.40;99.90
31661;DHT22;18267;52.234;7.444;2022-09-16T15:28:20;15.40;99.90
31661;DHT22;18267;52.234;7.444;2022-09-16T15:30:48;15.40;99.90
31661;DHT22;18267;52.234;7.444;2022-09-16T15:33:34;15.40;99.90
31661;DHT22;18267;52.234;7.444;2022-09-16T15:36:01;15.50;99.90
31661;DHT22;18267;52.234;7.444;2022-09-16T15:38:28;15.50;99.90
31661;DHT22;18267;52.234;7.444;2022-09-16T15:41:04;15.50;99.90
31661;DHT22;18267;52.234;7.444;2022-09-16T15:43:38;15.50;99.90
31661;DHT22;18267;52.234;7.444;2022-09-16T15:46:17;15.60;99.90
31661;DHT22;18267;52.234;7.444;2022-09-16T15:48:48;15.70;99.90
31661;DHT22;18267;52.234;7.444;2022-09-16T15:51:34;15.70;99.90
31661;DHT22;18267;52.234;7.444;2022-09-16T15:54:27;15.70;99.90
31661;DHT22;18267;52.234;7.444;2022-09-16T15:57:08;15.70;99.90
31661;DHT22;18267;52.234;7.444;2022-09-16T16:00:03;15.70;99.90
31661;DHT22;18267;52.234;7.444;2022-09-16T16:05:23;15.50;99.90
31661;DHT22;18267;52.234;7.444;2022-09-16T16:07:52;15.50;99.90
31661;DHT22;18267;52.234;7.444;2022-09-16T16:10:30;15.40;99.90
31661;DHT22;18267;52.234;7.444;2022-09-16T16:12:58;15.30;99.90
31661;DHT22;18267;52.234;7.444;2022-09-16T16:15:37;15.10;99.90
31661;DHT22;18267;52.234;7.444;2022-09-16T16:18:07;15.00;99.90
31661;DHT22;18267;52.234;7.444;2022-09-16T16:20:36;14.80;99.90
31661;DHT22;18267;52.234;7.444;2022-09-16T16:23:17;14.70;99.90
31661;DHT22;18267;52.234;7.444;2022-09-16T16:25:44;14.70;99.90
31661;DHT22;18267;52.234;7.444;2022-09-16T16:28:09;14.70;99.90
31661;DHT22;18267;52.234;7.444;2022-09-16T16:30:35;14.70;99.90
31661;DHT22;18267;52.234;7.444;2022-09-16T16:33:01;14.70;99.90
31661;DHT22;18267;52.234;7.444;2022-09-16T16:35:26;14.70;99.90
31661;DHT22;18267;52.234;7.444;2022-09-16T16:37:52;14.70;99.90
31661;DHT22;18267;52.234;7.444;2022-09-16T16:40:19;14.80;99.90
31661;DHT22;18267;52.234;7.444;2022-09-16T16:43:17;14.80;99.90
31661;DHT22;18267;52.234;7.444;2022-09-16T16:46:08;14.80;99.90
31661;DHT22;18267;52.234;7.444;2022-09-16T16:48:33;15.00;99.90
31661;DHT22;18267;52.234;7.444;2022-09-16T16:51:16;15.00;99.90
31661;DHT22;18267;52.234;7.444;2022-09-16T16:53:46;15.00;99.90
31661;DHT22;18267;52.234;7.444;2022-09-16T16:56:13;14.90;99.90
31661;DHT22;18267;52.234;7.444;2022-09-16T16:58:39;14.90;99.90
31661;DHT22;18267;52.234;7.444;2022-09-16T17:01:09;14.90;99.90
31661;DHT22;18267;52.234;7.444;2022-09-16T17:03:36;14.90;99.90
31661;DHT22;18267;52.234;7.444;2022-09-16T17:06:02;14.90;99.90
31661;DHT22;18267;52.234;7.444;2022-09-16T17:08:29;14.90;99.90
31661;DHT22;18267;52.234;7.444;2022-09-16T17:11:16;15.00;99.90
31661;DHT22;18267;52.234;7.444;2022-09-16T17:13:44;14.80;99.90
31661;DHT22;18267;52.234;7.444;2022-09-16T17:16:12;14.80;99.90
31661;DHT22;18267;52.234;7.444;2022-09-16T17:18:39;14.80;99.90
31661;DHT22;18267;52.234;7.444;2022-09-16T17:21:25;14.70;99.90
31661;DHT22;18267;52.234;7.444;2022-09-16T17:23:51;14.50;99.90
31661;DHT22;18267;52.234;7.444;2022-09-16T17:26:18;14.30;99.90
31661;DHT22;18267;52.234;7.444;2022-09-16T17:28:46;14.20;99.90
31661;DHT22;18267;52.234;7.444;2022-09-16T17:31:20;14.00;99.90
31661;DHT22;18267;52.234;7.444;2022-09-16T17:34:11;14.00;99.90
31661;DHT22;18267;52.234;7.444;2022-09-16T17:36:45;13.90;99.90
31661;DHT22;18267;52.234;7.444;2022-09-16T17:39:14;13.90;99.90
31661;DHT22;18267;52.234;7.444;2022-09-16T17:41:41;13.90;99.90
31661;DHT22;18267;52.234;7.444;2022-09-16T17:44:17;13.90;99.90
31661;DHT22;18267;52.234;7.444;2022-09-16T17:46:44;13.90;99.90
31661;DHT22;18267;52.234;7.444;2022-09-16T17:49:14;13.90;99.90
31661;DHT22;18267;52.234;7.444;2022-09-16T17:51:40;13.90;99.90
31661;DHT22;18267;52.234;7.444;2022-09-16T17:54:05;13.80;99.90
31661;DHT22;18267;52.234;7.444;2022-09-16T17:56:33;13.80;99.90
31661;DHT22;18267;52.234;7.444;2022-09-16T17:58:59;13.80;99.90
31661;DHT22;18267;52.234;7.444;2022-09-16T18:02:12;13.80;99.90
31661;DHT22;18267;52.234;7.444;2022-09-16T18:04:40;13.80;99.90
31661;DHT22;18267;52.234;7.444;2022-09-16T18:07:07;13.80;99.90
31661;DHT22;18267;52.234;7.444;2022-09-16T18:09:33;13.80;99.90
31661;DHT22;18267;52.234;7.444;2022-09-16T18:11:58;13.90;99.90
31661;DHT22;18267;52.234;7.444;2022-09-16T18:14:24;13.90;99.90
31661;DHT22;18267;52.234;7.444;2022-09-16T18:16:49;13.90;99.90
31661;DHT22;18267;52.234;7.444;2022-09-16T18:19:15;13.80;99.90
31661;DHT22;18267;52.234;7.444;2022-09-16T18:21:41;13.80;99.90
31661;DHT22;18267;52.234;7.444;2022-09-16T18:24:06;13.80;99.90
31661;DHT22;18267;52.234;7.444;2022-09-16T18:26:36;13.90;99.90
31661;DHT22;18267;52.234;7.444;2022-09-16T18:29:07;13.90;99.90
31661;DHT22;18267;52.234;7.444;2022-09-16T18:31:33;13.90;99.90
31661;DHT22;18267;52.234;7.444;2022-09-16T18:34:00;13.80;99.90
31661;DHT22;18267;52.234;7.444;2022-09-16T18:36:28;13.80;99.90
31661;DHT22;18267;52.234;7.444;2022-09-16T18:38:56;13.80;99.90
31661;DHT22;18267;52.234;7.444;2022-09-16T18:41:29;13.70;99.90
31661;DHT22;18267;52.234;7.444;2022-09-16T18:44:04;13.70;99.90
31661;DHT22;18267;52.234;7.444;2022-09-16T18:46:33;13.60;99.90
31661;DHT22;18267;52.234;7.444;2022-09-16T18:49:00;13.60;99.90
31661;DHT22;18267;52.234;7.444;2022-09-16T18:51:34;13.60;99.90
31661;DHT22;18267;52.234;7.444;2022-09-16T18:54:06;13.60;99.90
31661;DHT22;18267;52.234;7.444;2022-09-16T18:56:57;13.70;99.90
31661;DHT22;18267;52.234;7.444;2022-09-16T18:59:44;13.70;99.90
31661;DHT22;18267;52.234;7.444;2022-09-16T19:02:10;13.70;99.90
31661;DHT22;18267;52.234;7.444;2022-09-16T19:04:39;13.70;99.90
31661;DHT22;18267;52.234;7.444;2022-09-16T19:07:13;13.70;99.90
31661;DHT22;18267;52.234;7.444;2022-09-16T19:09:41;13.80;99.90
31661;DHT22;18267;52.234;7.444;2022-09-16T19:12:11;13.70;99.90
31661;DHT22;18267;52.234;7.444;2022-09-16T19:14:38;13.70;99.90
31661;DHT22;18267;52.234;7.444;2022-09-16T19:17:03;13.60;99.90
31661;DHT22;18267;52.234;7.444;2022-09-16T19:19:29;13.70;99.90
31661;DHT22;18267;52.234;7.444;2022-09-16T19:21:56;13.60;99.90
31661;DHT22;18267;52.234;7.444;2022-09-16T19:24:23;13.60;99.90
31661;DHT22;18267;52.234;7.444;2022-09-16T19:26:51;13.50;99.90
31661;DHT22;18267;52.234;7.444;2022-09-16T19:29:18;13.60;99.90
31661;DHT22;18267;52.234;7.444;2022-09-16T19:31:48;13.60;99.90
31661;DHT22;18267;52.234;7.444;2022-09-16T19:34:16;13.70;99.90
31661;DHT22;18267;52.234;7.444;2022-09-16T19:36:42;13.70;99.90
31661;DHT22;18267;52.234;7.444;2022-09-16T19:39:09;13.60;99.90
31661;DHT22;18267;52.234;7.444;2022-09-16T19:41:37;13.50;99.90
31661;DHT22;18267;52.234;7.444;2022-09-16T19:44:06;13.50;99.90
31661;DHT22;18267;52.234;7.444;2022-09-16T19:46:35;13.50;99.90
31661;DHT22;18267;52.234;7.444;2022-09-16T19:49:01;13.50;99.90
31661;DHT22;18267;52.234;7.444;2022-09-16T19:51:38;13.40;99.90
31661;DHT22;18267;52.234;7.444;2022-09-16T19:54:04;13.30;99.90
31661;DHT22;18267;52.234;7.444;2022-09-16T19:56:32;13.30;99.90
31661;DHT22;18267;52.234;7.444;2022-09-16T19:58:58;13.20;99.90
31661;DHT22;18267;52.234;7.444;2022-09-16T20:01:28;13.10;99.90
31661;DHT22;18267;52.234;7.444;2022-09-16T20:03:54;13.00;99.90
31661;DHT22;18267;52.234;7.444;2022-09-16T20:06:37;13.00;99.90
31661;DHT22;18267;52.234;7.444;2022-09-16T20:09:05;13.10;99.90
31661;DHT22;18267;52.234;7.444;2022-09-16T20:11:34;13.10;99.90
31661;DHT22;18267;52.234;7.444;2022-09-16T20:14:02;13.10;99.90
31661;DHT22;18267;52.234;7.444;2022-09-16T20:16:35;13.10;99.90
31661;DHT22;18267;52.234;7.444;2022-09-16T20:19:07;13.10;99.90
31661;DHT22;18267;52.234;7.444;2022-09-16T20:21:33;13.10;99.90
31661;DHT22;18267;52.234;7.444;2022-09-16T20:23:59;13.20;99.90
31661;DHT22;18267;52.234;7.444;2022-09-16T20:26:25;13.30;99.90
31661;DHT22;18267;52.234;7.444;2022-09-16T20:28:53;13.30;99.90
31661;DHT22;18267;52.234;7.444;2022-09-16T20:31:25;13.30;99.90
31661;DHT22;18267;52.234;7.444;2022-09-16T20:33:51;13.30;99.90
31661;DHT22;18267;52.234;7.444;2022-09-16T20:36:20;13.30;99.90
31661;DHT22;18267;52.234;7.444;2022-09-16T20:38:46;13.20;99.90
31661;DHT22;18267;52.234;7.444;2022-09-16T20:43:40;13.30;99.90
31661;DHT22;18267;52.234;7.444;2022-09-16T20:46:10;13.40;99.90
31661;DHT22;18267;52.234;7.444;2022-09-16T20:48:37;13.40;99.90
31661;DHT22;18267;52.234;7.444;2022-09-16T20:51:08;13.40;99.90
31661;DHT22;18267;52.234;7.444;2022-09-16T20:53:34;13.30;99.90
31661;DHT22;18267;52.234;7.444;2022-09-16T20:56:02;13.30;99.90
31661;DHT22;18267;52.234;7.444;2022-09-16T20:58:29;13.30;99.90
31661;DHT22;18267;52.234;7.444;2022-09-16T21:00:54;13.30;99.90
31661;DHT22;18267;52.234;7.444;2022-09-16T21:03:20;13.30;99.90
31661;DHT22;18267;52.234;7.444;2022-09-16T21:05:48;13.20;99.90
31661;DHT22;18267;52.234;7.444;2022-09-16T21:08:14;13.20;99.90
31661;DHT22;18267;52.234;7.444;2022-09-16T21:10:44;13.20;99.90
31661;DHT22;18267;52.234;7.444;2022-09-16T21:13:10;13.20;99.90
31661;DHT22;18267;52.234;7.444;2022-09-16T21:15:36;13.10;99.90
31661;DHT22;18267;52.234;7.444;2022-09-16T21:18:02;13.10;99.90
31661;DHT22;18267;52.234;7.444;2022-09-16T21:20:27;13.10;99.90
31661;DHT22;18267;52.234;7.444;2022-09-16T21:22:53;13.10;99.90
31661;DHT22;18267;52.234;7.444;2022-09-16T21:25:18;13.00;99.90
31661;DHT22;18267;52.234;7.444;2022-09-16T21:27:44;13.10;99.90
31661;DHT22;18267;52.234;7.444;2022-09-16T21:30:10;12.80;99.90
31661;DHT22;18267;52.234;7.444;2022-09-16T21:32:35;12.80;99.90
31661;DHT22;18267;52.234;7.444;2022-09-16T21:35:01;12.80;99.90